createdAt,value
2019-05-16T00:02:37.699Z,101474.66
2019-05-16T00:07:41.588Z,101460.56
2019-05-16T00:12:48.413Z,101418.11
2019-05-16T00:17:51.761Z,101447.12
2019-05-16T00:22:55.977Z,101433.30
2019-05-16T00:28:00.246Z,101423.63
2019-05-16T00:33:04.481Z,101413.45
2019-05-16T00:38:08.956Z,101402.83
2019-05-16T00:43:13.265Z,101390.83
2019-05-16T00:48:18.245Z,101387.40
2019-05-16T00:53:22.584Z,101385.50
2019-05-16T00:58:28.487Z,101371.92
2019-05-16T01:03:32.844Z,101357.82
2019-05-16T01:08:38.534Z,101342.13
2019-05-16T01:13:42.911Z,101334.75
2019-05-16T01:18:48.578Z,101326.80
2019-05-16T01:23:53.089Z,101324.05
2019-05-16T01:28:57.712Z,101311.30
2019-05-16T01:34:02.035Z,101306.97
2019-05-16T01:39:07.944Z,101305.63
2019-05-16T01:44:12.494Z,101289.34
2019-05-16T01:49:18.714Z,101279.80
2019-05-16T01:54:22.726Z,101274.56
2019-05-16T01:59:28.380Z,101264.48
2019-05-16T02:04:32.712Z,101249.97
2019-05-16T02:09:38.436Z,101246.36
2019-05-16T02:14:42.855Z,101235.61
2019-05-16T02:19:48.580Z,101237.59
2019-05-16T02:24:52.888Z,101229.03
2019-05-16T02:29:57.129Z,101223.84
2019-05-16T02:35:01.514Z,101223.13
2019-05-16T02:40:07.342Z,101223.17
2019-05-16T02:45:12.003Z,101213.48
2019-05-16T02:50:17.789Z,101211.31
2019-05-16T02:55:22.031Z,101200.65
2019-05-16T03:00:36.967Z,101194.38
2019-05-16T03:05:43.306Z,101192.27
2019-05-16T03:10:51.761Z,101193.56
2019-05-16T03:15:55.250Z,101178.77
2019-05-16T03:21:02.015Z,101176.63
2019-05-16T03:26:06.219Z,101172.53
2019-05-16T03:31:14.798Z,101165.00
2019-05-16T03:36:16.639Z,101160.28
2019-05-16T03:41:21.548Z,101165.98
2019-05-16T03:46:25.983Z,101146.11
2019-05-16T03:51:31.010Z,101153.45
2019-05-16T03:56:35.407Z,101146.08
2019-05-16T04:01:41.011Z,101144.87
2019-05-16T04:06:45.433Z,101142.42
2019-05-16T04:11:50.944Z,101131.69
2019-05-16T04:16:55.408Z,101125.34
2019-05-16T04:22:01.372Z,101127.84
2019-05-16T04:27:05.589Z,101116.35
2019-05-16T04:32:11.048Z,101112.55
2019-05-16T04:37:15.451Z,101116.67
2019-05-16T04:42:21.441Z,101116.08
2019-05-16T04:47:25.755Z,101114.03
2019-05-16T04:52:30.681Z,101107.80
2019-05-16T04:57:35.140Z,101113.27
2019-05-16T05:02:41.897Z,101102.07
2019-05-16T05:07:45.332Z,101104.86
2019-05-16T05:12:51.565Z,101100.54
2019-05-16T05:17:55.536Z,101099.73
2019-05-16T05:23:00.450Z,101091.05
2019-05-16T05:28:04.776Z,101080.38
2019-05-16T05:33:10.154Z,101086.44
2019-05-16T05:38:14.446Z,101086.77
2019-05-16T05:43:21.151Z,101093.16
2019-05-16T05:48:24.648Z,101092.34
2019-05-16T05:53:30.046Z,101079.29
2019-05-16T05:58:34.610Z,101087.09
2019-05-16T06:03:39.899Z,101088.06
2019-05-16T06:08:44.158Z,101087.56
2019-05-16T06:13:50.022Z,101076.68
2019-05-16T06:18:56.735Z,101071.66
2019-05-16T06:24:00.500Z,101076.59
2019-05-16T06:29:04.778Z,101070.73
2019-05-16T06:34:14.852Z,101071.16
2019-05-16T06:39:14.938Z,101055.33
2019-05-16T06:44:20.303Z,101063.97
2019-05-16T06:49:24.630Z,101064.90
2019-05-16T06:54:29.922Z,101060.98
2019-05-16T06:59:34.415Z,101055.96
2019-05-16T07:04:39.814Z,101054.02
2019-05-16T07:09:57.186Z,101048.66
2019-05-16T07:14:50.665Z,101038.50
2019-05-16T07:19:54.983Z,101039.20
2019-05-16T07:24:59.863Z,101038.27
2019-05-16T07:30:04.531Z,101026.98
2019-05-16T07:35:09.743Z,101037.14
2019-05-16T07:40:20.095Z,101045.48
2019-05-16T07:45:21.032Z,101035.82
2019-05-16T07:50:25.221Z,101033.36
2019-05-16T07:55:30.825Z,101026.89
2019-05-16T08:00:49.820Z,101018.76
2019-05-16T08:05:41.395Z,101020.20
2019-05-16T08:10:46.889Z,101015.06
2019-05-16T08:15:51.273Z,101012.47
2019-05-16T08:20:55.534Z,101014.13
2019-05-16T08:26:01.195Z,101019.47
2019-05-16T08:31:05.723Z,101011.55
2019-05-16T08:46:22.035Z,101004.75
2019-05-16T08:51:26.258Z,101003.10
2019-05-16T08:56:31.790Z,101003.59
2019-05-16T09:01:36.344Z,101003.08
2019-05-16T09:06:42.426Z,100996.39
2019-05-16T09:10:11.000Z,101014.55
2019-05-16T09:10:39.169Z,101005.38
2019-05-16T09:11:48.752Z,100994.84
2019-05-16T09:16:52.454Z,100988.23
2019-05-16T09:21:58.052Z,100986.20
2019-05-16T09:27:02.509Z,100979.62
2019-05-16T09:32:15.843Z,100979.13
2019-05-16T09:37:12.685Z,100978.81
2019-05-16T09:42:17.243Z,100972.97
2019-05-16T09:47:21.543Z,100966.56
2019-05-16T09:52:27.379Z,100964.77
2019-05-16T09:57:31.704Z,100961.55
2019-05-16T10:02:36.740Z,100963.38
2019-05-16T10:07:41.095Z,100961.97
2019-05-16T10:12:45.320Z,100967.92
2019-05-16T10:17:49.570Z,100964.96
2019-05-16T10:22:53.806Z,100950.75
2019-05-16T10:27:58.048Z,100951.55
2019-05-16T10:33:02.291Z,100954.62
2019-05-16T10:38:06.519Z,100945.19
2019-05-16T10:43:10.792Z,100952.45
2019-05-16T10:48:17.274Z,100955.55
2019-05-16T10:53:51.471Z,100940.25
2019-05-16T10:58:36.687Z,100931.65
2019-05-16T11:03:32.894Z,100929.88
2019-05-16T11:08:39.661Z,100920.89
2019-05-16T11:13:43.099Z,100922.81
2019-05-16T11:18:47.358Z,100938.00
2019-05-16T11:23:51.590Z,100940.23
2019-05-16T11:28:56.760Z,100929.69
2019-05-16T11:34:01.073Z,100939.66
2019-05-16T11:39:08.599Z,100932.36
2019-05-16T11:44:13.101Z,100931.11
2019-05-16T11:49:17.374Z,100927.53
2019-05-16T11:54:21.641Z,100928.94
2019-05-16T11:59:25.876Z,100915.05
2019-05-16T12:04:30.127Z,100907.11
2019-05-16T12:09:42.716Z,100916.74
2019-05-16T12:14:40.372Z,100922.19
2019-05-16T12:19:47.528Z,100934.06
2019-05-16T12:24:50.603Z,100931.31
2019-05-16T12:29:58.707Z,100921.95
2019-05-16T12:35:00.803Z,100926.63
2019-05-16T12:40:05.465Z,100922.56
2019-05-16T12:45:10.201Z,100926.63
2019-05-16T12:50:17.790Z,100928.63
2019-05-16T12:55:21.331Z,100929.09
2019-05-16T13:00:27.654Z,100916.74
2019-05-16T13:05:31.903Z,100922.34
2019-05-16T13:10:38.048Z,100926.91
2019-05-16T13:15:42.552Z,100919.96
2019-05-16T13:20:47.017Z,100918.20
2019-05-16T13:25:51.369Z,100923.91
2019-05-16T13:30:57.699Z,100919.08
2019-05-16T13:36:01.579Z,100918.09
2019-05-16T13:41:07.502Z,100917.86
2019-05-16T13:46:12.130Z,100913.63
2019-05-16T13:51:18.913Z,100909.26
2019-05-16T13:56:22.345Z,100895.77
2019-05-16T14:01:27.816Z,100883.65
2019-05-16T14:06:32.218Z,100879.73
2019-05-16T14:11:36.788Z,100886.58
2019-05-16T14:16:41.050Z,100886.55
2019-05-16T14:21:47.845Z,100878.48
2019-05-16T14:26:51.286Z,100879.38
2019-05-16T14:31:56.779Z,100875.94
2019-05-16T14:37:01.069Z,100880.04
2019-05-16T14:42:05.324Z,100877.23
2019-05-16T14:47:09.595Z,100877.61
2019-05-16T14:52:13.953Z,100877.48
2019-05-16T14:57:18.221Z,100871.81
2019-05-16T15:02:22.638Z,100876.30
2019-05-16T15:07:27.653Z,100867.52
2019-05-16T15:12:32.034Z,100867.39
2019-05-16T15:17:36.299Z,100857.22
2019-05-16T15:22:40.565Z,100866.30
2019-05-16T15:27:44.831Z,100862.32
2019-05-16T15:32:49.113Z,100862.65
2019-05-16T15:37:53.363Z,100867.27
2019-05-16T15:42:59.130Z,100874.81
2019-05-16T15:48:03.684Z,100867.69
2019-05-16T15:53:08.182Z,100865.01
2019-05-16T15:58:12.601Z,100859.80
2019-05-16T16:03:17.744Z,100864.53
2019-05-16T16:08:22.199Z,100869.11
2019-05-16T16:13:26.937Z,100872.40
2019-05-16T16:18:31.342Z,100871.66
2019-05-16T16:23:37.303Z,100880.24
2019-05-16T16:28:41.600Z,100888.22
2019-05-16T16:33:46.067Z,100886.53
2019-05-16T16:38:50.320Z,100883.77
2019-05-16T16:43:56.938Z,100889.86
2019-05-16T16:49:00.759Z,100884.31
2019-05-16T16:54:07.461Z,100889.56
2019-05-16T16:59:10.993Z,100892.55
2019-05-16T17:04:17.504Z,100890.52
2019-05-16T17:09:23.196Z,100891.20
2019-05-16T17:14:27.526Z,100893.93
2019-05-16T17:19:31.768Z,100893.05
2019-05-16T17:24:36.637Z,100892.99
2019-05-16T17:29:40.954Z,100897.19
2019-05-16T17:34:45.206Z,100891.30
2019-05-16T17:39:49.481Z,100895.32
2019-05-16T17:44:53.757Z,100889.30
2019-05-16T17:49:58.040Z,100890.19
2019-05-16T17:55:02.930Z,100885.48
2019-05-16T18:00:12.813Z,100888.61
2019-05-16T18:05:14.171Z,100896.58
2019-05-16T18:10:19.992Z,100895.86
2019-05-16T18:15:24.558Z,100898.55
2019-05-16T18:20:29.107Z,100900.17
2019-05-16T18:25:33.396Z,100897.59
2019-05-16T18:30:37.687Z,100902.19
2019-05-16T18:35:41.962Z,100900.17
2019-05-16T18:40:47.522Z,100899.28
2019-05-16T18:45:52.038Z,100899.16
2019-05-16T18:50:57.788Z,100895.41
2019-05-16T18:56:03.357Z,100894.91
2019-05-16T19:01:07.866Z,100901.17
2019-05-16T19:06:17.017Z,100902.41
2019-05-16T19:11:21.325Z,100904.13
2019-05-16T19:16:26.230Z,100909.94
2019-05-16T19:21:31.085Z,100913.45
2019-05-16T19:26:37.232Z,100914.63
2019-05-16T19:31:41.392Z,100922.84
2019-05-16T19:36:47.051Z,100922.40
2019-05-16T19:41:51.537Z,100925.89
2019-05-16T19:46:57.513Z,100920.44
2019-05-16T19:52:01.873Z,100911.67
2019-05-16T19:57:07.190Z,100908.08
2019-05-16T20:02:11.788Z,100898.86
2019-05-16T20:07:16.796Z,100898.05
2019-05-16T20:12:21.318Z,100893.50
2019-05-16T20:17:26.947Z,100901.00
2019-05-16T20:22:31.351Z,100902.05
2019-05-16T20:27:36.853Z,100902.50
2019-05-16T20:32:41.300Z,100907.63
2019-05-16T20:37:47.316Z,100907.80
2019-05-16T20:42:51.738Z,100912.99
2019-05-16T20:48:07.993Z,100911.59
2019-05-16T20:53:01.956Z,100905.98
2019-05-16T20:58:07.695Z,100909.78
2019-05-16T21:03:12.295Z,100907.00
2019-05-16T21:08:17.282Z,100914.00
2019-05-16T21:13:21.697Z,100909.06
2019-05-16T21:18:25.949Z,100904.63
2019-05-16T21:23:30.235Z,100904.98
2019-05-16T21:28:36.777Z,100902.24
2019-05-16T21:33:40.461Z,100909.61
2019-05-16T21:38:46.808Z,100909.83
2019-05-16T21:43:50.819Z,100907.63
2019-05-16T21:48:56.722Z,100904.36
2019-05-16T21:54:01.092Z,100908.00
2019-05-16T21:59:06.975Z,100911.45
2019-05-16T22:04:11.395Z,100907.47
2019-05-16T22:09:15.647Z,100905.84
2019-05-16T22:14:24.318Z,100901.36
2019-05-16T22:19:28.576Z,100897.69
2019-05-16T22:24:32.832Z,100894.20
2019-05-16T22:29:37.251Z,100887.00
2019-05-16T22:34:41.508Z,100886.22
2019-05-16T22:39:45.825Z,100889.00
2019-05-16T22:44:50.176Z,100884.51
2019-05-16T22:49:56.602Z,100890.59
2019-05-16T22:55:00.437Z,100890.61
2019-05-16T23:00:07.567Z,100885.47
2019-05-16T23:05:11.272Z,100882.22
2019-05-16T23:10:16.643Z,100872.91
2019-05-16T23:15:21.230Z,100870.55
2019-05-16T23:20:27.539Z,100870.07
2019-05-16T23:25:31.462Z,100869.47
2019-05-16T23:30:36.596Z,100872.00
2019-05-16T23:35:40.993Z,100871.52
2019-05-16T23:40:46.792Z,100866.95
2019-05-16T23:45:51.217Z,100866.63
2019-05-16T23:50:56.927Z,100863.16
2019-05-16T23:56:01.311Z,100867.76
